sensor_id;sensor_type;location;lat;lon;timestamp;P1;P2;P0
67892;PMS7003;54688;52.376;16.744;2023-03-04T00:00:56;35;26;
67892;PMS7003;54688;52.376;16.744;2023-03-04T00:03:59;26;22;
67892;PMS7003;54688;52.376;16.744;2023-03-04T00:07:01;33;25;
67892;PMS7003;54688;52.376;16.744;2023-03-04T00:10:05;36;28;
67892;PMS7003;54688;52.376;16.744;2023-03-04T00:13:07;36;27;
67892;PMS7003;54688;52.376;16.744;2023-03-04T00:16:09;32;27;
67892;PMS7003;54688;52.376;16.744;2023-03-04T00:19:11;34;22;
67892;PMS7003;54688;52.376;16.744;2023-03-04T00:22:13;28;24;
67892;PMS7003;54688;52.376;16.744;2023-03-04T00:25:15;35;27;
67892;PMS7003;54688;52.376;16.744;2023-03-04T00:28:17;29;25;
67892;PMS7003;54688;52.376;16.744;2023-03-04T00:31:20;25;24;
67892;PMS7003;54688;52.376;16.744;2023-03-04T00:34:22;28;26;
67892;PMS7003;54688;52.376;16.744;2023-03-04T00:37:24;28;25;
67892;PMS7003;54688;52.376;16.744;2023-03-04T00:40:27;36;25;
67892;PMS7003;54688;52.376;16.744;2023-03-04T00:43:28;25;19;
67892;PMS7003;54688;52.376;16.744;2023-03-04T00:46:30;34;26;
67892;PMS7003;54688;52.376;16.744;2023-03-04T00:49:32;29;27;
67892;PMS7003;54688;52.376;16.744;2023-03-04T00:52:34;22;22;
67892;PMS7003;54688;52.376;16.744;2023-03-04T00:55:37;28;22;
67892;PMS7003;54688;52.376;16.744;2023-03-04T00:58:39;28;26;
67892;PMS7003;54688;52.376;16.744;2023-03-04T01:01:41;39;33;
67892;PMS7003;54688;52.376;16.744;2023-03-04T01:04:43;30;23;
67892;PMS7003;54688;52.376;16.744;2023-03-04T01:07:45;36;31;
67892;PMS7003;54688;52.376;16.744;2023-03-04T01:10:48;26;22;
67892;PMS7003;54688;52.376;16.744;2023-03-04T01:13:50;33;29;
67892;PMS7003;54688;52.376;16.744;2023-03-04T01:16:52;32;29;
67892;PMS7003;54688;52.376;16.744;2023-03-04T01:19:54;28;26;
67892;PMS7003;54688;52.376;16.744;2023-03-04T01:22:56;29;25;
67892;PMS7003;54688;52.376;16.744;2023-03-04T01:25:59;31;27;
67892;PMS7003;54688;52.376;16.744;2023-03-04T01:29:01;32;27;
67892;PMS7003;54688;52.376;16.744;2023-03-04T01:32:03;28;23;
67892;PMS7003;54688;52.376;16.744;2023-03-04T01:35:06;35;27;
67892;PMS7003;54688;52.376;16.744;2023-03-04T01:38:08;34;30;
67892;PMS7003;54688;52.376;16.744;2023-03-04T01:41:11;33;27;
67892;PMS7003;54688;52.376;16.744;2023-03-04T01:44:14;26;22;
67892;PMS7003;54688;52.376;16.744;2023-03-04T01:47:16;34;27;
67892;PMS7003;54688;52.376;16.744;2023-03-04T01:50:21;32;26;
67892;PMS7003;54688;52.376;16.744;2023-03-04T01:53:24;37;28;
67892;PMS7003;54688;52.376;16.744;2023-03-04T01:56:28;28;23;
67892;PMS7003;54688;52.376;16.744;2023-03-04T01:59:31;32;25;
67892;PMS7003;54688;52.376;16.744;2023-03-04T02:02:33;35;25;
67892;PMS7003;54688;52.376;16.744;2023-03-04T02:05:37;33;28;
67892;PMS7003;54688;52.376;16.744;2023-03-04T02:08:39;38;27;
67892;PMS7003;54688;52.376;16.744;2023-03-04T02:11:41;34;26;
67892;PMS7003;54688;52.376;16.744;2023-03-04T02:14:43;30;28;
67892;PMS7003;54688;52.376;16.744;2023-03-04T02:17:46;37;30;
67892;PMS7003;54688;52.376;16.744;2023-03-04T02:20:53;30;26;
67892;PMS7003;54688;52.376;16.744;2023-03-04T02:24:04;30;28;
67892;PMS7003;54688;52.376;16.744;2023-03-04T02:27:07;31;26;
67892;PMS7003;54688;52.376;16.744;2023-03-04T02:30:11;43;33;
67892;PMS7003;54688;52.376;16.744;2023-03-04T02:33:15;26;24;
67892;PMS7003;54688;52.376;16.744;2023-03-04T02:36:17;29;24;
67892;PMS7003;54688;52.376;16.744;2023-03-04T02:39:24;32;26;
67892;PMS7003;54688;52.376;16.744;2023-03-04T02:42:28;29;23;
67892;PMS7003;54688;52.376;16.744;2023-03-04T02:45:35;24;22;
67892;PMS7003;54688;52.376;16.744;2023-03-04T02:48:37;30;26;
67892;PMS7003;54688;52.376;16.744;2023-03-04T02:51:39;30;27;
67892;PMS7003;54688;52.376;16.744;2023-03-04T02:54:41;28;21;
67892;PMS7003;54688;52.376;16.744;2023-03-04T02:57:44;25;24;
67892;PMS7003;54688;52.376;16.744;2023-03-04T03:00:46;26;22;
67892;PMS7003;54688;52.376;16.744;2023-03-04T03:03:48;25;21;
67892;PMS7003;54688;52.376;16.744;2023-03-04T03:06:51;30;23;
67892;PMS7003;54688;52.376;16.744;2023-03-04T03:09:53;21;20;
67892;PMS7003;54688;52.376;16.744;2023-03-04T03:12:55;29;22;
67892;PMS7003;54688;52.376;16.744;2023-03-04T03:15:57;33;26;
67892;PMS7003;54688;52.376;16.744;2023-03-04T03:19:00;25;21;
67892;PMS7003;54688;52.376;16.744;2023-03-04T03:22:02;25;21;
67892;PMS7003;54688;52.376;16.744;2023-03-04T03:25:06;28;23;
67892;PMS7003;54688;52.376;16.744;2023-03-04T03:28:09;24;21;
67892;PMS7003;54688;52.376;16.744;2023-03-04T03:31:11;30;23;
67892;PMS7003;54688;52.376;16.744;2023-03-04T03:34:14;28;19;
67892;PMS7003;54688;52.376;16.744;2023-03-04T03:37:16;26;23;
67892;PMS7003;54688;52.376;16.744;2023-03-04T03:40:19;24;21;
67892;PMS7003;54688;52.376;16.744;2023-03-04T03:43:21;27;19;
67892;PMS7003;54688;52.376;16.744;2023-03-04T03:46:24;26;19;
67892;PMS7003;54688;52.376;16.744;2023-03-04T03:49:26;28;18;
67892;PMS7003;54688;52.376;16.744;2023-03-04T03:52:29;28;22;
67892;PMS7003;54688;52.376;16.744;2023-03-04T03:55:32;29;25;
67892;PMS7003;54688;52.376;16.744;2023-03-04T03:58:34;23;21;
67892;PMS7003;54688;52.376;16.744;2023-03-04T04:01:36;25;16;
67892;PMS7003;54688;52.376;16.744;2023-03-04T04:04:38;23;19;
67892;PMS7003;54688;52.376;16.744;2023-03-04T04:07:40;19;19;
67892;PMS7003;54688;52.376;16.744;2023-03-04T04:10:42;26;20;
67892;PMS7003;54688;52.376;16.744;2023-03-04T04:13:44;18;17;
67892;PMS7003;54688;52.376;16.744;2023-03-04T04:16:46;21;16;
67892;PMS7003;54688;52.376;16.744;2023-03-04T04:19:48;17;15;
67892;PMS7003;54688;52.376;16.744;2023-03-04T04:22:50;26;20;
67892;PMS7003;54688;52.376;16.744;2023-03-04T04:25:53;24;20;
67892;PMS7003;54688;52.376;16.744;2023-03-04T04:28:55;21;18;
67892;PMS7003;54688;52.376;16.744;2023-03-04T04:31:57;19;17;
67892;PMS7003;54688;52.376;16.744;2023-03-04T04:35:00;25;16;
67892;PMS7003;54688;52.376;16.744;2023-03-04T04:38:02;23;17;
67892;PMS7003;54688;52.376;16.744;2023-03-04T04:41:04;30;20;
67892;PMS7003;54688;52.376;16.744;2023-03-04T04:44:07;21;18;
67892;PMS7003;54688;52.376;16.744;2023-03-04T04:47:10;24;17;
67892;PMS7003;54688;52.376;16.744;2023-03-04T04:50:12;20;12;
67892;PMS7003;54688;52.376;16.744;2023-03-04T04:53:14;18;15;
67892;PMS7003;54688;52.376;16.744;2023-03-04T04:56:18;15;12;
67892;PMS7003;54688;52.376;16.744;2023-03-04T04:59:21;22;15;
67892;PMS7003;54688;52.376;16.744;2023-03-04T05:02:23;20;15;
67892;PMS7003;54688;52.376;16.744;2023-03-04T05:05:25;18;16;
67892;PMS7003;54688;52.376;16.744;2023-03-04T05:08:28;20;16;
67892;PMS7003;54688;52.376;16.744;2023-03-04T05:11:30;17;15;
67892;PMS7003;54688;52.376;16.744;2023-03-04T05:14:33;23;14;
67892;PMS7003;54688;52.376;16.744;2023-03-04T05:17:35;17;14;
67892;PMS7003;54688;52.376;16.744;2023-03-04T05:20:37;27;20;
67892;PMS7003;54688;52.376;16.744;2023-03-04T05:23:41;20;18;
67892;PMS7003;54688;52.376;16.744;2023-03-04T05:26:44;14;12;
67892;PMS7003;54688;52.376;16.744;2023-03-04T05:29:46;19;13;
67892;PMS7003;54688;52.376;16.744;2023-03-04T05:32:47;15;12;
67892;PMS7003;54688;52.376;16.744;2023-03-04T05:35:50;18;13;
67892;PMS7003;54688;52.376;16.744;2023-03-04T05:38:51;18;14;
67892;PMS7003;54688;52.376;16.744;2023-03-04T05:41:54;19;12;
67892;PMS7003;54688;52.376;16.744;2023-03-04T05:44:56;22;11;
67892;PMS7003;54688;52.376;16.744;2023-03-04T05:47:58;16;14;
67892;PMS7003;54688;52.376;16.744;2023-03-04T05:51:01;15;12;
67892;PMS7003;54688;52.376;16.744;2023-03-04T05:54:03;14;12;
67892;PMS7003;54688;52.376;16.744;2023-03-04T05:57:06;16;13;
67892;PMS7003;54688;52.376;16.744;2023-03-04T06:00:09;15;11;
67892;PMS7003;54688;52.376;16.744;2023-03-04T06:03:14;12;10;
67892;PMS7003;54688;52.376;16.744;2023-03-04T06:06:17;14;11;
67892;PMS7003;54688;52.376;16.744;2023-03-04T06:09:19;17;12;
67892;PMS7003;54688;52.376;16.744;2023-03-04T06:12:21;14;12;
67892;PMS7003;54688;52.376;16.744;2023-03-04T06:15:23;14;9;
67892;PMS7003;54688;52.376;16.744;2023-03-04T06:18:26;14;12;
67892;PMS7003;54688;52.376;16.744;2023-03-04T06:21:29;15;11;
67892;PMS7003;54688;52.376;16.744;2023-03-04T06:24:31;16;15;
67892;PMS7003;54688;52.376;16.744;2023-03-04T06:27:33;14;11;
67892;PMS7003;54688;52.376;16.744;2023-03-04T06:30:35;15;11;
67892;PMS7003;54688;52.376;16.744;2023-03-04T06:33:38;15;12;
67892;PMS7003;54688;52.376;16.744;2023-03-04T06:36:40;16;12;
67892;PMS7003;54688;52.376;16.744;2023-03-04T06:39:42;16;16;
67892;PMS7003;54688;52.376;16.744;2023-03-04T06:42:44;15;12;
67892;PMS7003;54688;52.376;16.744;2023-03-04T06:45:46;15;11;
67892;PMS7003;54688;52.376;16.744;2023-03-04T06:48:48;18;12;
67892;PMS7003;54688;52.376;16.744;2023-03-04T06:51:50;10;9;
67892;PMS7003;54688;52.376;16.744;2023-03-04T06:54:52;19;12;
67892;PMS7003;54688;52.376;16.744;2023-03-04T06:57:55;15;11;
67892;PMS7003;54688;52.376;16.744;2023-03-04T07:01:09;15;11;
67892;PMS7003;54688;52.376;16.744;2023-03-04T07:04:12;17;12;
67892;PMS7003;54688;52.376;16.744;2023-03-04T07:07:15;16;11;
67892;PMS7003;54688;52.376;16.744;2023-03-04T07:10:18;13;9;
67892;PMS7003;54688;52.376;16.744;2023-03-04T07:13:20;15;12;
67892;PMS7003;54688;52.376;16.744;2023-03-04T07:16:23;16;13;
67892;PMS7003;54688;52.376;16.744;2023-03-04T07:19:25;21;12;
67892;PMS7003;54688;52.376;16.744;2023-03-04T07:22:27;10;10;
67892;PMS7003;54688;52.376;16.744;2023-03-04T07:25:29;12;11;
67892;PMS7003;54688;52.376;16.744;2023-03-04T07:28:32;15;10;
67892;PMS7003;54688;52.376;16.744;2023-03-04T07:31:34;15;15;
67892;PMS7003;54688;52.376;16.744;2023-03-04T07:34:36;21;13;
67892;PMS7003;54688;52.376;16.744;2023-03-04T07:37:38;15;13;
67892;PMS7003;54688;52.376;16.744;2023-03-04T07:40:40;17;12;
67892;PMS7003;54688;52.376;16.744;2023-03-04T07:43:43;12;10;
67892;PMS7003;54688;52.376;16.744;2023-03-04T07:46:45;19;13;
67892;PMS7003;54688;52.376;16.744;2023-03-04T07:49:47;8;8;
67892;PMS7003;54688;52.376;16.744;2023-03-04T07:52:49;16;10;
67892;PMS7003;54688;52.376;16.744;2023-03-04T07:55:51;10;8;
67892;PMS7003;54688;52.376;16.744;2023-03-04T07:58:54;12;10;
67892;PMS7003;54688;52.376;16.744;2023-03-04T08:01:56;20;9;
67892;PMS7003;54688;52.376;16.744;2023-03-04T08:04:58;14;12;
67892;PMS7003;54688;52.376;16.744;2023-03-04T08:08:01;17;13;
67892;PMS7003;54688;52.376;16.744;2023-03-04T08:11:04;10;8;
67892;PMS7003;54688;52.376;16.744;2023-03-04T08:14:06;17;11;
67892;PMS7003;54688;52.376;16.744;2023-03-04T08:17:08;17;14;
67892;PMS7003;54688;52.376;16.744;2023-03-04T08:20:11;18;11;
67892;PMS7003;54688;52.376;16.744;2023-03-04T08:23:14;14;10;
67892;PMS7003;54688;52.376;16.744;2023-03-04T08:26:19;16;11;
67892;PMS7003;54688;52.376;16.744;2023-03-04T08:29:23;11;10;
67892;PMS7003;54688;52.376;16.744;2023-03-04T08:32:26;15;11;
67892;PMS7003;54688;52.376;16.744;2023-03-04T08:35:28;13;10;
67892;PMS7003;54688;52.376;16.744;2023-03-04T08:38:30;13;11;
67892;PMS7003;54688;52.376;16.744;2023-03-04T08:41:33;15;9;
67892;PMS7003;54688;52.376;16.744;2023-03-04T08:44:35;18;12;
67892;PMS7003;54688;52.376;16.744;2023-03-04T08:47:37;17;13;
67892;PMS7003;54688;52.376;16.744;2023-03-04T08:50:40;14;11;
67892;PMS7003;54688;52.376;16.744;2023-03-04T08:53:42;15;13;
67892;PMS7003;54688;52.376;16.744;2023-03-04T08:56:45;14;12;
67892;PMS7003;54688;52.376;16.744;2023-03-04T08:59:48;17;12;
67892;PMS7003;54688;52.376;16.744;2023-03-04T09:02:50;15;14;
67892;PMS7003;54688;52.376;16.744;2023-03-04T09:05:53;16;13;
67892;PMS7003;54688;52.376;16.744;2023-03-04T09:08:55;14;13;
67892;PMS7003;54688;52.376;16.744;2023-03-04T09:11:57;13;12;
67892;PMS7003;54688;52.376;16.744;2023-03-04T09:14:59;24;16;
67892;PMS7003;54688;52.376;16.744;2023-03-04T09:18:03;14;12;
67892;PMS7003;54688;52.376;16.744;2023-03-04T09:21:06;18;13;
67892;PMS7003;54688;52.376;16.744;2023-03-04T09:24:09;18;14;
67892;PMS7003;54688;52.376;16.744;2023-03-04T09:27:10;17;14;
67892;PMS7003;54688;52.376;16.744;2023-03-04T09:30:13;22;18;
67892;PMS7003;54688;52.376;16.744;2023-03-04T09:33:16;15;13;
67892;PMS7003;54688;52.376;16.744;2023-03-04T09:36:18;16;13;
67892;PMS7003;54688;52.376;16.744;2023-03-04T09:39:20;16;13;
67892;PMS7003;54688;52.376;16.744;2023-03-04T09:42:25;17;14;
67892;PMS7003;54688;52.376;16.744;2023-03-04T09:45:34;15;11;
67892;PMS7003;54688;52.376;16.744;2023-03-04T09:48:42;16;13;
67892;PMS7003;54688;52.376;16.744;2023-03-04T09:51:51;15;13;
67892;PMS7003;54688;52.376;16.744;2023-03-04T09:55:03;13;9;
67892;PMS7003;54688;52.376;16.744;2023-03-04T09:58:10;12;7;
67892;PMS7003;54688;52.376;16.744;2023-03-04T10:01:19;7;6;
67892;PMS7003;54688;52.376;16.744;2023-03-04T10:04:30;11;7;
67892;PMS7003;54688;52.376;16.744;2023-03-04T10:07:35;5;3;
67892;PMS7003;54688;52.376;16.744;2023-03-04T10:10:40;5;5;
67892;PMS7003;54688;52.376;16.744;2023-03-04T10:13:51;7;4;
67892;PMS7003;54688;52.376;16.744;2023-03-04T10:16:57;5;3;
67892;PMS7003;54688;52.376;16.744;2023-03-04T10:20:03;5;3;
67892;PMS7003;54688;52.376;16.744;2023-03-04T10:23:10;7;3;
67892;PMS7003;54688;52.376;16.744;2023-03-04T10:26:15;5;3;
67892;PMS7003;54688;52.376;16.744;2023-03-04T10:29:20;8;4;
67892;PMS7003;54688;52.376;16.744;2023-03-04T10:32:22;3;3;
67892;PMS7003;54688;52.376;16.744;2023-03-04T10:35:29;3;3;
67892;PMS7003;54688;52.376;16.744;2023-03-04T10:38:35;3;2;
67892;PMS7003;54688;52.376;16.744;2023-03-04T10:41:42;4;2;
67892;PMS7003;54688;52.376;16.744;2023-03-04T10:44:51;2;1;
67892;PMS7003;54688;52.376;16.744;2023-03-04T10:47:54;5;3;
67892;PMS7003;54688;52.376;16.744;2023-03-04T10:51:11;4;3;
67892;PMS7003;54688;52.376;16.744;2023-03-04T10:54:22;2;2;
67892;PMS7003;54688;52.376;16.744;2023-03-04T10:57:32;3;3;
67892;PMS7003;54688;52.376;16.744;2023-03-04T11:00:36;2;2;
67892;PMS7003;54688;52.376;16.744;2023-03-04T11:03:45;1;1;
67892;PMS7003;54688;52.376;16.744;2023-03-04T11:06:48;3;2;
67892;PMS7003;54688;52.376;16.744;2023-03-04T11:09:50;3;2;
67892;PMS7003;54688;52.376;16.744;2023-03-04T11:12:58;6;3;
67892;PMS7003;54688;52.376;16.744;2023-03-04T11:16:02;6;4;
67892;PMS7003;54688;52.376;16.744;2023-03-04T11:19:10;4;3;
67892;PMS7003;54688;52.376;16.744;2023-03-04T11:22:15;3;3;
67892;PMS7003;54688;52.376;16.744;2023-03-04T11:25:23;4;4;
67892;PMS7003;54688;52.376;16.744;2023-03-04T11:28:35;2;2;
67892;PMS7003;54688;52.376;16.744;2023-03-04T11:31:46;5;4;
67892;PMS7003;54688;52.376;16.744;2023-03-04T11:34:53;6;5;
67892;PMS7003;54688;52.376;16.744;2023-03-04T11:38:05;8;7;
67892;PMS7003;54688;52.376;16.744;2023-03-04T11:41:13;8;6;
67892;PMS7003;54688;52.376;16.744;2023-03-04T11:44:16;7;4;
67892;PMS7003;54688;52.376;16.744;2023-03-04T11:47:31;7;6;
67892;PMS7003;54688;52.376;16.744;2023-03-04T11:50:43;10;6;
67892;PMS7003;54688;52.376;16.744;2023-03-04T11:53:57;8;7;
67892;PMS7003;54688;52.376;16.744;2023-03-04T11:57:08;5;5;
67892;PMS7003;54688;52.376;16.744;2023-03-04T12:00:22;9;7;
67892;PMS7003;54688;52.376;16.744;2023-03-04T12:06:34;7;6;
67892;PMS7003;54688;52.376;16.744;2023-03-04T12:09:43;7;6;
67892;PMS7003;54688;52.376;16.744;2023-03-04T12:13:03;11;5;
67892;PMS7003;54688;52.376;16.744;2023-03-04T12:16:17;10;6;
67892;PMS7003;54688;52.376;16.744;2023-03-04T12:19:28;7;4;
67892;PMS7003;54688;52.376;16.744;2023-03-04T12:22:41;6;6;
67892;PMS7003;54688;52.376;16.744;2023-03-04T12:28:48;5;5;
67892;PMS7003;54688;52.376;16.744;2023-03-04T12:31:55;5;5;
67892;PMS7003;54688;52.376;16.744;2023-03-04T12:35:13;7;6;
67892;PMS7003;54688;52.376;16.744;2023-03-04T12:38:28;4;3;
67892;PMS7003;54688;52.376;16.744;2023-03-04T12:41:42;5;5;
67892;PMS7003;54688;52.376;16.744;2023-03-04T12:44:49;5;5;
67892;PMS7003;54688;52.376;16.744;2023-03-04T12:48:00;4;4;
67892;PMS7003;54688;52.376;16.744;2023-03-04T12:51:14;7;3;
67892;PMS7003;54688;52.376;16.744;2023-03-04T12:54:23;7;6;
67892;PMS7003;54688;52.376;16.744;2023-03-04T12:57:28;9;5;
67892;PMS7003;54688;52.376;16.744;2023-03-04T13:00:42;8;6;
67892;PMS7003;54688;52.376;16.744;2023-03-04T13:03:52;7;4;
67892;PMS7003;54688;52.376;16.744;2023-03-04T13:07:07;7;6;
67892;PMS7003;54688;52.376;16.744;2023-03-04T13:10:15;9;7;
67892;PMS7003;54688;52.376;16.744;2023-03-04T13:13:33;7;6;
67892;PMS7003;54688;52.376;16.744;2023-03-04T13:16:39;10;8;
67892;PMS7003;54688;52.376;16.744;2023-03-04T13:19:45;7;5;
67892;PMS7003;54688;52.376;16.744;2023-03-04T13:22:52;5;5;
67892;PMS7003;54688;52.376;16.744;2023-03-04T13:26:15;9;5;
67892;PMS7003;54688;52.376;16.744;2023-03-04T13:29:33;3;3;
67892;PMS7003;54688;52.376;16.744;2023-03-04T13:32:37;6;5;
67892;PMS7003;54688;52.376;16.744;2023-03-04T13:35:48;7;6;
67892;PMS7003;54688;52.376;16.744;2023-03-04T13:38:56;5;5;
67892;PMS7003;54688;52.376;16.744;2023-03-04T13:42:00;5;3;
67892;PMS7003;54688;52.376;16.744;2023-03-04T13:45:03;6;4;
67892;PMS7003;54688;52.376;16.744;2023-03-04T13:48:19;7;4;
67892;PMS7003;54688;52.376;16.744;2023-03-04T13:51:28;4;4;
67892;PMS7003;54688;52.376;16.744;2023-03-04T13:54:31;3;3;
67892;PMS7003;54688;52.376;16.744;2023-03-04T13:57:35;8;7;
67892;PMS7003;54688;52.376;16.744;2023-03-04T14:00:47;5;4;
67892;PMS7003;54688;52.376;16.744;2023-03-04T14:03:50;9;6;
67892;PMS7003;54688;52.376;16.744;2023-03-04T14:06:53;9;8;
67892;PMS7003;54688;52.376;16.744;2023-03-04T14:09:58;7;7;
67892;PMS7003;54688;52.376;16.744;2023-03-04T14:13:00;9;6;
67892;PMS7003;54688;52.376;16.744;2023-03-04T14:16:03;15;11;
67892;PMS7003;54688;52.376;16.744;2023-03-04T14:19:11;5;4;
67892;PMS7003;54688;52.376;16.744;2023-03-04T14:22:24;7;4;
67892;PMS7003;54688;52.376;16.744;2023-03-04T14:25:28;7;5;
67892;PMS7003;54688;52.376;16.744;2023-03-04T14:28:31;8;8;
67892;PMS7003;54688;52.376;16.744;2023-03-04T14:31:33;5;4;
67892;PMS7003;54688;52.376;16.744;2023-03-04T14:34:37;5;5;
67892;PMS7003;54688;52.376;16.744;2023-03-04T14:40:41;8;4;
67892;PMS7003;54688;52.376;16.744;2023-03-04T14:43:49;4;4;
67892;PMS7003;54688;52.376;16.744;2023-03-04T14:46:56;7;4;
67892;PMS7003;54688;52.376;16.744;2023-03-04T14:50:04;5;4;
67892;PMS7003;54688;52.376;16.744;2023-03-04T14:53:14;7;5;
67892;PMS7003;54688;52.376;16.744;2023-03-04T14:56:26;8;4;
67892;PMS7003;54688;52.376;16.744;2023-03-04T14:59:30;7;5;
67892;PMS7003;54688;52.376;16.744;2023-03-04T15:02:37;3;3;
67892;PMS7003;54688;52.376;16.744;2023-03-04T15:05:40;4;3;
67892;PMS7003;54688;52.376;16.744;2023-03-04T15:08:44;4;4;
67892;PMS7003;54688;52.376;16.744;2023-03-04T15:11:48;6;3;
67892;PMS7003;54688;52.376;16.744;2023-03-04T15:14:52;3;3;
67892;PMS7003;54688;52.376;16.744;2023-03-04T15:17:57;5;3;
67892;PMS7003;54688;52.376;16.744;2023-03-04T15:21:03;7;5;
67892;PMS7003;54688;52.376;16.744;2023-03-04T15:24:08;3;3;
67892;PMS7003;54688;52.376;16.744;2023-03-04T15:27:11;7;5;
67892;PMS7003;54688;52.376;16.744;2023-03-04T15:30:16;9;6;
67892;PMS7003;54688;52.376;16.744;2023-03-04T15:33:19;7;7;
67892;PMS7003;54688;52.376;16.744;2023-03-04T15:36:22;12;6;
67892;PMS7003;54688;52.376;16.744;2023-03-04T15:39:25;10;6;
67892;PMS7003;54688;52.376;16.744;2023-03-04T15:42:27;7;4;
67892;PMS7003;54688;52.376;16.744;2023-03-04T15:45:31;9;8;
67892;PMS7003;54688;52.376;16.744;2023-03-04T15:48:33;6;6;
67892;PMS7003;54688;52.376;16.744;2023-03-04T15:51:35;6;5;
67892;PMS7003;54688;52.376;16.744;2023-03-04T15:54:37;13;7;
67892;PMS7003;54688;52.376;16.744;2023-03-04T15:57:39;9;7;
67892;PMS7003;54688;52.376;16.744;2023-03-04T16:00:42;9;7;
67892;PMS7003;54688;52.376;16.744;2023-03-04T16:03:43;10;8;
67892;PMS7003;54688;52.376;16.744;2023-03-04T16:06:47;15;13;
67892;PMS7003;54688;52.376;16.744;2023-03-04T16:09:53;13;8;
67892;PMS7003;54688;52.376;16.744;2023-03-04T16:12:57;9;6;
67892;PMS7003;54688;52.376;16.744;2023-03-04T16:15:59;13;10;
67892;PMS7003;54688;52.376;16.744;2023-03-04T16:19:01;12;11;
67892;PMS7003;54688;52.376;16.744;2023-03-04T16:22:03;11;10;
67892;PMS7003;54688;52.376;16.744;2023-03-04T16:25:10;11;10;
67892;PMS7003;54688;52.376;16.744;2023-03-04T16:28:13;13;10;
67892;PMS7003;54688;52.376;16.744;2023-03-04T16:31:16;14;12;
67892;PMS7003;54688;52.376;16.744;2023-03-04T16:34:17;14;8;
67892;PMS7003;54688;52.376;16.744;2023-03-04T16:37:20;8;5;
67892;PMS7003;54688;52.376;16.744;2023-03-04T16:40:25;10;8;
67892;PMS7003;54688;52.376;16.744;2023-03-04T16:43:28;10;6;
67892;PMS7003;54688;52.376;16.744;2023-03-04T16:46:30;7;5;
67892;PMS7003;54688;52.376;16.744;2023-03-04T16:49:32;13;10;
67892;PMS7003;54688;52.376;16.744;2023-03-04T16:52:35;11;8;
67892;PMS7003;54688;52.376;16.744;2023-03-04T16:55:37;9;8;
67892;PMS7003;54688;52.376;16.744;2023-03-04T16:58:39;9;7;
67892;PMS7003;54688;52.376;16.744;2023-03-04T17:04:41;20;14;
67892;PMS7003;54688;52.376;16.744;2023-03-04T17:07:43;15;13;
67892;PMS7003;54688;52.376;16.744;2023-03-04T17:10:45;14;10;
67892;PMS7003;54688;52.376;16.744;2023-03-04T17:13:48;20;13;
67892;PMS7003;54688;52.376;16.744;2023-03-04T17:16:51;12;12;
67892;PMS7003;54688;52.376;16.744;2023-03-04T17:19:52;15;12;
67892;PMS7003;54688;52.376;16.744;2023-03-04T17:22:55;9;7;
67892;PMS7003;54688;52.376;16.744;2023-03-04T17:25:58;8;5;
67892;PMS7003;54688;52.376;16.744;2023-03-04T17:29:00;8;6;
67892;PMS7003;54688;52.376;16.744;2023-03-04T17:32:03;11;6;
67892;PMS7003;54688;52.376;16.744;2023-03-04T17:35:06;13;9;
67892;PMS7003;54688;52.376;16.744;2023-03-04T17:38:08;9;9;
67892;PMS7003;54688;52.376;16.744;2023-03-04T17:41:12;10;7;
67892;PMS7003;54688;52.376;16.744;2023-03-04T17:44:14;9;8;
67892;PMS7003;54688;52.376;16.744;2023-03-04T17:47:16;14;8;
67892;PMS7003;54688;52.376;16.744;2023-03-04T17:50:18;10;9;
67892;PMS7003;54688;52.376;16.744;2023-03-04T17:53:20;14;13;
67892;PMS7003;54688;52.376;16.744;2023-03-04T17:56:22;11;9;
67892;PMS7003;54688;52.376;16.744;2023-03-04T17:59:24;16;12;
67892;PMS7003;54688;52.376;16.744;2023-03-04T18:02:26;9;9;
67892;PMS7003;54688;52.376;16.744;2023-03-04T18:05:27;29;20;
67892;PMS7003;54688;52.376;16.744;2023-03-04T18:08:30;18;12;
67892;PMS7003;54688;52.376;16.744;2023-03-04T18:11:34;16;11;
67892;PMS7003;54688;52.376;16.744;2023-03-04T18:14:36;18;11;
67892;PMS7003;54688;52.376;16.744;2023-03-04T18:17:38;18;16;
67892;PMS7003;54688;52.376;16.744;2023-03-04T18:20:40;19;12;
67892;PMS7003;54688;52.376;16.744;2023-03-04T18:23:43;15;10;
67892;PMS7003;54688;52.376;16.744;2023-03-04T18:26:45;9;9;
67892;PMS7003;54688;52.376;16.744;2023-03-04T18:29:47;7;6;
67892;PMS7003;54688;52.376;16.744;2023-03-04T18:32:49;15;14;
67892;PMS7003;54688;52.376;16.744;2023-03-04T18:35:57;12;9;
67892;PMS7003;54688;52.376;16.744;2023-03-04T18:41:58;7;7;
67892;PMS7003;54688;52.376;16.744;2023-03-04T18:45:00;7;7;
67892;PMS7003;54688;52.376;16.744;2023-03-04T18:48:03;15;8;
67892;PMS7003;54688;52.376;16.744;2023-03-04T18:51:05;9;7;
67892;PMS7003;54688;52.376;16.744;2023-03-04T18:54:07;12;7;
67892;PMS7003;54688;52.376;16.744;2023-03-04T18:57:11;8;7;
67892;PMS7003;54688;52.376;16.744;2023-03-04T19:00:16;14;11;
67892;PMS7003;54688;52.376;16.744;2023-03-04T19:03:19;12;10;
67892;PMS7003;54688;52.376;16.744;2023-03-04T19:06:21;20;16;
67892;PMS7003;54688;52.376;16.744;2023-03-04T19:09:23;23;16;
67892;PMS7003;54688;52.376;16.744;2023-03-04T19:12:25;38;32;
67892;PMS7003;54688;52.376;16.744;2023-03-04T19:15:27;33;30;
67892;PMS7003;54688;52.376;16.744;2023-03-04T19:18:30;65;46;
67892;PMS7003;54688;52.376;16.744;2023-03-04T19:21:35;54;40;
67892;PMS7003;54688;52.376;16.744;2023-03-04T19:24:39;59;41;
67892;PMS7003;54688;52.376;16.744;2023-03-04T19:27:41;48;37;
67892;PMS7003;54688;52.376;16.744;2023-03-04T19:30:43;51;39;
67892;PMS7003;54688;52.376;16.744;2023-03-04T19:33:46;34;27;
67892;PMS7003;54688;52.376;16.744;2023-03-04T19:36:48;30;22;
67892;PMS7003;54688;52.376;16.744;2023-03-04T19:39:51;34;29;
67892;PMS7003;54688;52.376;16.744;2023-03-04T19:42:53;38;30;
67892;PMS7003;54688;52.376;16.744;2023-03-04T19:45:55;29;17;
67892;PMS7003;54688;52.376;16.744;2023-03-04T19:49:00;33;26;
67892;PMS7003;54688;52.376;16.744;2023-03-04T19:52:03;48;36;
67892;PMS7003;54688;52.376;16.744;2023-03-04T19:55:05;66;48;
67892;PMS7003;54688;52.376;16.744;2023-03-04T19:58:07;70;55;
67892;PMS7003;54688;52.376;16.744;2023-03-04T20:01:19;60;42;
67892;PMS7003;54688;52.376;16.744;2023-03-04T20:04:22;43;35;
67892;PMS7003;54688;52.376;16.744;2023-03-04T20:07:24;25;20;
67892;PMS7003;54688;52.376;16.744;2023-03-04T20:10:30;21;16;
67892;PMS7003;54688;52.376;16.744;2023-03-04T20:13:32;42;28;
67892;PMS7003;54688;52.376;16.744;2023-03-04T20:16:33;27;27;
67892;PMS7003;54688;52.376;16.744;2023-03-04T20:19:36;50;36;
67892;PMS7003;54688;52.376;16.744;2023-03-04T20:22:38;25;22;
67892;PMS7003;54688;52.376;16.744;2023-03-04T20:25:40;16;16;
67892;PMS7003;54688;52.376;16.744;2023-03-04T20:28:42;14;12;
67892;PMS7003;54688;52.376;16.744;2023-03-04T20:31:44;19;18;